Freda, North Dakota
Current Conditions -  °F | °C
As of 12:15 PM on Monday 20 Oct 2014 (Local Time) from KY19 Reporting Station
Clear Clear  
Wind Chill: 66°   Ceiling: Unl
Heat Index: 66°   Visibility: 10mi
Dew Point: 37°   Wind: 15mph
Humidity: 35%   Direction: 170°S
Pressure: 30.03"   Gusts: NA
Location:  46.3317°N, 101.236°W
Report Text: KY19 201815Z AUTO 17013KT 10SM CLR 19/03 A3003 RMK AO2
Loading
Personal Weather Stations






























Interactive Weather Map
Tropical Storm Tracking
New forecast layout! Learn more

10-Day Weather Forecast

Advertisements
Track Severe Weather on mobile